Time;durP1;ratioP1;P1;durP2;ratioP2;P2;SDS_P1;SDS_P2;PMS_P1;PMS_P2;Temp;Humidity;BMP_temperature;BMP_pressure;BME280_temperature;BME280_humidity;BME280_pressure;Samples;Min_cycle;Max_cycle;Signal;HPM_P1;HPM_P2
2023/11/03 00:01:30;;;;;;;7.82;2.00;;;8.80;96.40;;;;;;5015263;28;20214;-77
2023/11/03 00:03:56;;;;;;;6.03;1.60;;;8.80;96.50;;;;;;5018064;28;20041;-76
2023/11/03 00:06:21;;;;;;;8.45;2.00;;;8.80;96.50;;;;;;5011829;28;20032;-78
2023/11/03 00:08:47;;;;;;;6.05;1.80;;;8.80;96.50;;;;;;5018458;28;20032;-76
2023/11/03 00:11:12;;;;;;;5.43;1.73;;;8.80;96.50;;;;;;5017857;28;20045;-76
2023/11/03 00:13:38;;;;;;;6.95;1.85;;;8.80;96.60;;;;;;5012364;28;20030;-79
2023/11/03 00:16:04;;;;;;;8.63;1.85;;;8.80;96.70;;;;;;5017210;28;20096;-79
2023/11/03 00:18:31;;;;;;;8.52;2.00;;;8.80;96.80;;;;;;5018206;28;20477;-79
2023/11/03 00:20:56;;;;;;;5.75;2.10;;;8.70;96.90;;;;;;5013271;28;20034;-79
2023/11/03 00:23:23;;;;;;;6.80;2.40;;;8.80;97.00;;;;;;5015090;28;20163;-76
2023/11/03 00:25:49;;;;;;;5.38;2.03;;;8.80;97.00;;;;;;5017678;28;20503;-75
2023/11/03 00:28:15;;;;;;;8.73;1.98;;;8.80;97.10;;;;;;5020563;28;20276;-74
2023/11/03 00:30:41;;;;;;;7.47;2.00;;;8.70;97.00;;;;;;5023057;28;20378;-74
2023/11/03 00:33:08;;;;;;;9.35;2.00;;;8.80;97.10;;;;;;5019596;28;20095;-76
2023/11/03 00:35:34;;;;;;;8.18;2.38;;;8.80;97.10;;;;;;5019247;28;20053;-75
2023/11/03 00:38:00;;;;;;;11.88;2.40;;;8.70;97.10;;;;;;5015811;28;20037;-76
2023/11/03 00:40:26;;;;;;;7.68;2.45;;;8.70;97.10;;;;;;5018535;28;20351;-77
2023/11/03 00:42:51;;;;;;;7.35;2.22;;;8.70;97.20;;;;;;5018918;28;20430;-75
2023/11/03 00:45:17;;;;;;;12.50;2.38;;;8.70;97.20;;;;;;5013490;28;20029;-75
2023/11/03 00:47:43;;;;;;;12.80;2.47;;;8.70;97.20;;;;;;5015760;28;20363;-76
2023/11/03 00:50:09;;;;;;;8.02;2.03;;;8.70;97.20;;;;;;5017907;28;20226;-75
2023/11/03 00:52:35;;;;;;;7.82;2.30;;;8.70;97.30;;;;;;5019051;28;20094;-75
2023/11/03 00:55:06;;;;;;;11.00;2.78;;;8.70;97.30;;;;;;5019697;28;20057;-78
2023/11/03 00:57:32;;;;;;;12.00;2.60;;;8.80;97.40;;;;;;5017963;28;20037;-76
2023/11/03 00:59:58;;;;;;;8.73;2.78;;;8.80;97.30;;;;;;5018382;28;20048;-75
2023/11/03 01:02:23;;;;;;;6.72;2.30;;;8.80;97.30;;;;;;5019631;28;20029;-75
2023/11/03 01:04:49;;;;;;;12.30;2.30;;;8.90;97.20;;;;;;5033461;28;20053;-75
2023/11/03 01:07:15;;;;;;;12.70;2.75;;;8.90;97.20;;;;;;5014705;28;20072;-76
2023/11/03 01:09:41;;;;;;;10.55;2.80;;;8.80;97.20;;;;;;5019195;28;20048;-76
2023/11/03 01:12:07;;;;;;;12.82;2.53;;;8.80;97.10;;;;;;5011074;28;20095;-75
2023/11/03 01:14:33;;;;;;;10.77;2.50;;;8.80;97.10;;;;;;5015546;28;20112;-76
2023/11/03 01:17:00;;;;;;;11.65;2.40;;;8.70;97.10;;;;;;5014681;28;20036;-76
2023/11/03 01:19:25;;;;;;;8.27;2.33;;;8.80;97.10;;;;;;5015712;28;20018;-75
2023/11/03 01:21:51;;;;;;;12.57;2.90;;;8.70;97.10;;;;;;5025718;28;20056;-76
2023/11/03 01:24:17;;;;;;;12.70;3.50;;;8.80;97.10;;;;;;5025959;28;20477;-77
2023/11/03 01:26:43;;;;;;;13.18;3.13;;;8.70;97.10;;;;;;5035564;28;20063;-78
2023/11/03 01:29:08;;;;;;;12.20;2.50;;;8.70;97.10;;;;;;5026617;28;20029;-74
2023/11/03 01:31:36;;;;;;;13.05;2.80;;;8.70;97.10;;;;;;5021181;28;20064;-76
2023/11/03 01:34:05;;;;;;;13.07;2.92;;;8.80;97.20;;;;;;5018763;28;20117;-78
2023/11/03 01:36:31;;;;;;;8.48;2.65;;;8.80;97.20;;;;;;5019646;28;20048;-75
2023/11/03 01:38:57;;;;;;;13.73;2.85;;;8.80;97.20;;;;;;5015348;28;20346;-77
2023/11/03 01:41:23;;;;;;;12.30;2.75;;;8.80;97.10;;;;;;5019599;28;20036;-77
2023/11/03 01:44:11;;;;;;;12.77;2.67;;;8.80;97.10;;;;;;5020228;28;20022;-76
2023/11/03 01:46:38;;;;;;;11.77;2.50;;;8.90;97.10;;;;;;5019333;28;20121;-76
2023/11/03 01:49:08;;;;;;;8.25;2.45;;;8.90;97.10;;;;;;5017476;28;20052;-75
2023/11/03 01:51:35;;;;;;;14.15;3.47;;;9.00;96.90;;;;;;5012393;28;20038;-76
2023/11/03 01:54:02;;;;;;;12.38;3.08;;;8.90;96.80;;;;;;5016977;28;20033;-78
2023/11/03 01:56:29;;;;;;;14.80;3.30;;;8.90;96.80;;;;;;5010609;28;20035;-77
2023/11/03 01:59:01;;;;;;;13.38;3.65;;;8.90;96.90;;;;;;5011505;28;20076;-74
2023/11/03 02:01:27;;;;;;;12.77;3.15;;;8.90;96.80;;;;;;5014737;28;20030;-75
2023/11/03 02:03:53;;;;;;;11.00;2.95;;;8.90;96.80;;;;;;5021680;28;20029;-77
2023/11/03 02:06:18;;;;;;;11.55;3.38;;;8.90;96.80;;;;;;5015014;28;20065;-77
2023/11/03 02:08:45;;;;;;;10.35;3.33;;;8.90;96.80;;;;;;5018587;28;20022;-77
2023/11/03 02:11:11;;;;;;;14.45;3.25;;;8.80;96.80;;;;;;5010317;28;20033;-74
2023/11/03 02:13:37;;;;;;;13.20;3.40;;;8.90;96.90;;;;;;5016556;28;20026;-77
2023/11/03 02:16:03;;;;;;;12.85;3.17;;;8.90;96.80;;;;;;5012181;28;20482;-76
2023/11/03 02:18:30;;;;;;;13.15;3.00;;;8.90;96.80;;;;;;5015172;28;20038;-77
2023/11/03 02:20:56;;;;;;;13.35;2.63;;;8.90;96.80;;;;;;5017194;28;20123;-78
2023/11/03 02:23:22;;;;;;;9.63;2.80;;;8.90;96.90;;;;;;5014452;28;20362;-77
2023/11/03 02:25:47;;;;;;;10.05;3.13;;;8.80;96.80;;;;;;5021149;28;20033;-73
2023/11/03 02:28:13;;;;;;;10.25;3.13;;;8.80;96.80;;;;;;5023407;28;20119;-78
2023/11/03 02:30:39;;;;;;;15.13;3.10;;;8.80;96.80;;;;;;5022967;28;20117;-75
2023/11/03 02:33:05;;;;;;;12.25;3.33;;;8.90;96.90;;;;;;5025165;28;20030;-75
2023/11/03 02:35:31;;;;;;;12.20;2.63;;;8.80;96.80;;;;;;5021168;28;20070;-76
2023/11/03 02:37:57;;;;;;;11.50;2.78;;;8.90;96.80;;;;;;5024067;28;20033;-78
2023/11/03 02:40:23;;;;;;;10.63;3.03;;;8.90;96.80;;;;;;5015864;28;20366;-76
2023/11/03 02:42:49;;;;;;;12.00;3.15;;;9.00;96.70;;;;;;5021085;28;20125;-76
2023/11/03 02:45:14;;;;;;;10.90;3.10;;;8.90;96.70;;;;;;5020840;28;20026;-76
2023/11/03 02:47:40;;;;;;;10.93;2.53;;;8.90;96.70;;;;;;5018498;28;20068;-79
2023/11/03 02:50:06;;;;;;;11.52;3.40;;;9.00;96.70;;;;;;5020661;28;20037;-78
2023/11/03 02:52:32;;;;;;;15.20;2.95;;;8.90;96.70;;;;;;5017818;28;20107;-76
2023/11/03 02:54:58;;;;;;;16.80;3.10;;;9.00;96.70;;;;;;5020509;28;20126;-75
2023/11/03 02:57:23;;;;;;;11.85;3.13;;;9.00;96.70;;;;;;5019849;28;20304;-75
2023/11/03 02:59:49;;;;;;;13.18;2.85;;;9.00;96.70;;;;;;5013413;28;20034;-78
2023/11/03 03:02:14;;;;;;;12.80;3.17;;;9.00;96.80;;;;;;5011180;28;20029;-76
2023/11/03 03:04:40;;;;;;;17.88;3.92;;;9.00;96.80;;;;;;5017624;28;20033;-75
2023/11/03 03:07:06;;;;;;;18.17;4.10;;;9.10;96.80;;;;;;5016953;28;20068;-76
2023/11/03 03:09:31;;;;;;;13.23;3.92;;;9.00;96.80;;;;;;5019727;28;20318;-78
2023/11/03 03:11:58;;;;;;;13.85;3.30;;;9.00;96.80;;;;;;5022603;28;20465;-75
2023/11/03 03:14:23;;;;;;;15.52;3.90;;;9.10;96.80;;;;;;5019236;28;20344;-77
2023/11/03 03:16:50;;;;;;;15.57;3.42;;;9.10;96.90;;;;;;5037485;28;20386;-77
2023/11/03 03:19:16;;;;;;;13.15;3.45;;;9.10;96.80;;;;;;5016169;28;20436;-77
2023/11/03 03:21:42;;;;;;;12.63;3.08;;;9.10;96.80;;;;;;5016320;28;20037;-75
2023/11/03 03:24:08;;;;;;;9.70;2.70;;;9.00;96.80;;;;;;5020753;28;20369;-75
2023/11/03 03:26:34;;;;;;;11.10;3.50;;;9.10;96.80;;;;;;5019446;28;20143;-77
2023/11/03 03:28:59;;;;;;;14.52;3.25;;;9.10;96.80;;;;;;5035575;28;20112;-75
2023/11/03 03:31:26;;;;;;;10.52;2.95;;;9.10;96.70;;;;;;5018209;28;20366;-73
2023/11/03 03:33:51;;;;;;;13.77;3.40;;;9.10;96.70;;;;;;5017286;28;20014;-76
2023/11/03 03:36:17;;;;;;;13.90;3.45;;;9.10;96.80;;;;;;5018733;28;20030;-74
2023/11/03 03:38:43;;;;;;;12.98;3.38;;;9.10;96.80;;;;;;5019694;28;20418;-78
2023/11/03 03:41:16;;;;;;;16.15;2.97;;;9.10;96.80;;;;;;5017897;28;20029;-75
2023/11/03 03:43:41;;;;;;;21.58;3.92;;;9.10;96.70;;;;;;5012061;28;20092;-76
2023/11/03 03:46:07;;;;;;;13.95;3.15;;;9.10;96.70;;;;;;5015393;28;20068;-76
2023/11/03 03:48:33;;;;;;;16.02;3.70;;;9.10;96.70;;;;;;5011976;28;20044;-76
2023/11/03 03:50:58;;;;;;;14.77;3.03;;;9.10;96.60;;;;;;5016919;28;20091;-77
2023/11/03 03:53:24;;;;;;;11.88;2.70;;;9.10;96.70;;;;;;5014073;28;20123;-77
2023/11/03 03:55:50;;;;;;;14.40;2.75;;;9.10;96.60;;;;;;5011193;28;20466;-75
2023/11/03 03:58:16;;;;;;;13.20;3.88;;;9.10;96.60;;;;;;5012702;28;20116;-77
2023/11/03 04:00:41;;;;;;;6.18;2.15;;;9.10;96.50;;;;;;5018073;28;20386;-76
2023/11/03 04:03:08;;;;;;;12.23;2.75;;;9.10;96.20;;;;;;5016051;28;20883;-77
2023/11/03 04:05:34;;;;;;;11.85;2.95;;;9.10;96.10;;;;;;5017962;28;20521;-78
2023/11/03 04:08:00;;;;;;;12.27;3.00;;;9.10;96.00;;;;;;5016010;28;20041;-77
2023/11/03 04:10:25;;;;;;;12.23;2.67;;;9.10;95.80;;;;;;5017168;28;20026;-76
2023/11/03 04:12:51;;;;;;;8.60;2.22;;;9.10;95.70;;;;;;5019489;28;20489;-80
2023/11/03 04:15:17;;;;;;;11.75;2.80;;;9.10;95.70;;;;;;5014889;28;20068;-76
2023/11/03 04:17:43;;;;;;;8.50;2.47;;;9.10;95.70;;;;;;5015536;28;20041;-77
2023/11/03 04:20:09;;;;;;;10.70;2.38;;;9.10;95.60;;;;;;5012467;28;20034;-77
2023/11/03 04:22:35;;;;;;;13.05;3.17;;;9.10;95.60;;;;;;5010683;28;20121;-76
2023/11/03 04:25:01;;;;;;;13.95;2.75;;;9.10;95.60;;;;;;5011849;28;20038;-78
2023/11/03 04:27:26;;;;;;;11.90;3.55;;;9.10;95.50;;;;;;5020357;28;20045;-78
2023/11/03 04:29:52;;;;;;;10.07;2.65;;;9.10;95.40;;;;;;5014791;28;20470;-76
2023/11/03 04:32:18;;;;;;;10.95;2.35;;;9.20;95.30;;;;;;5020198;28;20391;-75
2023/11/03 04:34:43;;;;;;;9.05;2.58;;;9.20;95.20;;;;;;5010148;28;20033;-77
2023/11/03 04:37:09;;;;;;;9.38;2.58;;;9.20;95.20;;;;;;5010100;28;20037;-76
2023/11/03 04:39:35;;;;;;;11.77;2.97;;;9.20;95.10;;;;;;5018413;28;20037;-76
2023/11/03 04:42:01;;;;;;;11.20;2.10;;;9.20;95.30;;;;;;5019396;28;20032;-75
2023/11/03 04:44:27;;;;;;;13.68;2.60;;;9.20;95.30;;;;;;5022469;28;20030;-78
2023/11/03 04:46:52;;;;;;;11.48;2.70;;;9.30;95.30;;;;;;5021010;28;20418;-75
2023/11/03 04:49:19;;;;;;;10.75;2.45;;;9.30;95.20;;;;;;5031083;28;20025;-78
2023/11/03 04:51:45;;;;;;;12.60;2.80;;;9.20;95.10;;;;;;5042096;28;20056;-80
2023/11/03 04:54:12;;;;;;;9.45;2.55;;;9.20;95.10;;;;;;5042504;28;20029;-79
2023/11/03 04:56:37;;;;;;;13.93;2.85;;;9.20;95.10;;;;;;5025387;28;20076;-77
2023/11/03 04:59:05;;;;;;;9.18;2.38;;;9.20;95.20;;;;;;5023229;28;20470;-77
2023/11/03 05:01:33;;;;;;;13.20;2.95;;;9.20;95.20;;;;;;5014731;28;20037;-76
2023/11/03 05:03:59;;;;;;;14.65;3.17;;;9.20;95.20;;;;;;5020323;28;20471;-77
2023/11/03 05:06:25;;;;;;;16.63;2.97;;;9.20;95.20;;;;;;5017865;28;20526;-77
2023/11/03 05:08:51;;;;;;;12.63;3.10;;;9.20;95.20;;;;;;5020664;28;20082;-77
2023/11/03 05:11:16;;;;;;;14.05;2.95;;;9.20;95.30;;;;;;5006285;28;20092;-78
2023/11/03 05:13:44;;;;;;;13.93;3.10;;;9.20;95.30;;;;;;5013858;28;20064;-76
2023/11/03 05:16:11;;;;;;;13.95;2.83;;;9.10;95.30;;;;;;5008471;28;20492;-75
2023/11/03 05:18:38;;;;;;;14.10;2.92;;;9.10;95.40;;;;;;5015484;28;20136;-77
2023/11/03 05:21:04;;;;;;;11.38;2.90;;;9.10;95.50;;;;;;5019893;28;20125;-76
2023/11/03 05:23:30;;;;;;;13.65;3.10;;;9.20;95.50;;;;;;5016106;28;20116;-76
2023/11/03 05:25:56;;;;;;;8.57;2.65;;;9.10;95.40;;;;;;5013121;28;20038;-77
2023/11/03 05:28:21;;;;;;;11.63;2.88;;;9.10;95.40;;;;;;5018908;28;20034;-78
2023/11/03 05:30:48;;;;;;;10.75;2.67;;;9.10;95.40;;;;;;5013342;28;20040;-76
2023/11/03 05:33:17;;;;;;;17.00;3.05;;;9.10;95.40;;;;;;5019307;28;20041;-76
2023/11/03 05:35:44;;;;;;;10.50;2.83;;;9.10;95.50;;;;;;5010880;28;20111;-78
2023/11/03 05:38:10;;;;;;;14.48;3.38;;;9.10;95.50;;;;;;5029697;28;20425;-76
2023/11/03 05:40:35;;;;;;;15.85;3.38;;;9.10;95.50;;;;;;5018886;28;20029;-77
2023/11/03 05:43:01;;;;;;;13.25;2.67;;;9.10;95.60;;;;;;5018513;28;20431;-75
2023/11/03 05:45:27;;;;;;;13.18;2.95;;;9.10;95.60;;;;;;5012753;28;20033;-78
2023/11/03 05:47:54;;;;;;;15.10;2.80;;;9.10;95.60;;;;;;5016893;28;20045;-76
2023/11/03 05:50:20;;;;;;;14.20;2.85;;;9.10;95.60;;;;;;5018600;28;20040;-77
2023/11/03 05:52:45;;;;;;;12.23;3.13;;;9.10;95.60;;;;;;5014942;28;20030;-77
2023/11/03 05:55:11;;;;;;;19.40;3.08;;;9.10;95.60;;;;;;5014132;28;20467;-75
2023/11/03 05:57:37;;;;;;;15.75;3.75;;;9.10;95.60;;;;;;5021714;28;20108;-77
2023/11/03 06:00:08;;;;;;;17.83;2.75;;;9.10;95.70;;;;;;5023132;28;20045;-77
2023/11/03 06:02:36;;;;;;;17.17;3.45;;;9.00;95.70;;;;;;5019716;28;20038;-76
2023/11/03 06:05:03;;;;;;;15.57;3.05;;;9.00;95.60;;;;;;5013774;28;20038;-75
2023/11/03 06:07:29;;;;;;;14.43;3.17;;;9.00;95.60;;;;;;5017153;28;20157;-78
2023/11/03 06:09:56;;;;;;;13.38;3.30;;;9.00;95.70;;;;;;5019333;28;20101;-76
2023/11/03 06:12:21;;;;;;;13.57;3.25;;;9.00;95.60;;;;;;5017313;28;20056;-74
2023/11/03 06:14:47;;;;;;;12.93;2.55;;;9.00;95.70;;;;;;5021266;28;20128;-75
2023/11/03 06:17:13;;;;;;;15.35;3.50;;;9.00;95.60;;;;;;5015351;28;20041;-75
2023/11/03 06:19:38;;;;;;;14.90;3.78;;;9.00;95.70;;;;;;5023335;28;20040;-77
2023/11/03 06:22:04;;;;;;;12.70;3.15;;;9.00;95.60;;;;;;5023351;28;20527;-73
2023/11/03 06:24:30;;;;;;;12.80;3.40;;;8.90;95.60;;;;;;5022421;28;20097;-78
2023/11/03 06:26:59;;;;;;;14.88;2.90;;;8.90;95.60;;;;;;5019573;28;20044;-77
2023/11/03 06:29:25;;;;;;;11.20;3.63;;;8.90;95.60;;;;;;5019735;28;20028;-74
2023/11/03 06:31:51;;;;;;;11.82;3.88;;;8.90;95.70;;;;;;5015596;28;20042;-76
2023/11/03 06:34:17;;;;;;;13.55;3.22;;;8.90;95.70;;;;;;5039783;28;20033;-76
2023/11/03 06:36:42;;;;;;;13.75;3.75;;;8.90;95.70;;;;;;5013928;28;20068;-74
2023/11/03 06:39:08;;;;;;;20.15;3.45;;;8.80;95.70;;;;;;5021835;28;20433;-75
2023/11/03 06:41:34;;;;;;;15.38;3.17;;;8.80;95.70;;;;;;5021478;28;20827;-76
2023/11/03 06:44:01;;;;;;;12.68;3.22;;;8.90;95.80;;;;;;5018607;28;20021;-75
2023/11/03 06:46:27;;;;;;;11.48;2.58;;;8.80;95.70;;;;;;5021580;28;20572;-77
2023/11/03 06:48:53;;;;;;;13.43;3.10;;;8.80;95.70;;;;;;5018593;28;20021;-74
2023/11/03 06:51:19;;;;;;;11.68;3.40;;;8.80;95.70;;;;;;5021030;28;20072;-75
2023/11/03 06:53:44;;;;;;;12.30;2.90;;;8.80;95.60;;;;;;5021103;28;20022;-76
2023/11/03 06:56:11;;;;;;;17.10;3.17;;;8.80;95.40;;;;;;5018796;28;20273;-76
2023/11/03 06:58:36;;;;;;;11.18;2.95;;;8.80;95.40;;;;;;5020788;28;20124;-75
2023/11/03 07:01:04;;;;;;;11.55;3.30;;;8.80;95.30;;;;;;5022646;28;20120;-75
2023/11/03 07:03:31;;;;;;;16.35;3.15;;;8.80;95.30;;;;;;5019963;28;20095;-75
2023/11/03 07:05:57;;;;;;;14.73;2.78;;;8.80;95.20;;;;;;5018230;28;20375;-76
2023/11/03 07:08:23;;;;;;;17.65;3.00;;;8.80;95.30;;;;;;5019928;28;20060;-76
2023/11/03 07:10:48;;;;;;;16.33;3.22;;;8.80;95.20;;;;;;5015762;28;20041;-75
2023/11/03 07:13:14;;;;;;;14.52;3.47;;;8.80;95.20;;;;;;5015456;28;20428;-77
2023/11/03 07:15:43;;;;;;;12.40;3.25;;;8.80;95.10;;;;;;5018122;28;20030;-75
2023/11/03 07:18:08;;;;;;;15.65;3.30;;;8.90;95.10;;;;;;5016437;28;20045;-75
2023/11/03 07:20:34;;;;;;;14.82;3.13;;;8.80;94.90;;;;;;5029488;28;20041;-77
2023/11/03 07:23:00;;;;;;;15.13;3.72;;;8.90;94.90;;;;;;5034758;28;20371;-76
2023/11/03 07:25:25;;;;;;;18.90;3.67;;;8.80;94.90;;;;;;5011715;28;20037;-75
2023/11/03 07:27:51;;;;;;;15.20;3.60;;;8.80;94.80;;;;;;5017061;28;20566;-78
2023/11/03 07:30:17;;;;;;;12.57;3.25;;;8.90;94.90;;;;;;5018028;28;20033;-75
2023/11/03 07:32:44;;;;;;;14.30;3.10;;;8.90;94.80;;;;;;5016131;28;20033;-78
2023/11/03 07:35:11;;;;;;;12.60;3.40;;;8.80;94.70;;;;;;5015854;28;20041;-78
2023/11/03 07:37:37;;;;;;;14.82;3.33;;;8.80;94.80;;;;;;5020046;28;20244;-77
2023/11/03 07:40:05;;;;;;;12.15;2.90;;;8.90;94.80;;;;;;5019173;28;20143;-78
2023/11/03 07:42:31;;;;;;;12.35;2.97;;;8.90;94.80;;;;;;5013499;28;20163;-78
2023/11/03 07:44:56;;;;;;;13.90;3.30;;;8.90;94.80;;;;;;5020396;28;20052;-76
2023/11/03 07:47:22;;;;;;;13.02;3.38;;;8.90;94.70;;;;;;5012987;28;20482;-77
2023/11/03 07:49:53;;;;;;;16.52;3.42;;;9.00;94.60;;;;;;5017608;28;20102;-76
2023/11/03 07:52:19;;;;;;;15.00;3.72;;;9.00;94.40;;;;;;5029861;28;20030;-75
2023/11/03 07:54:44;;;;;;;17.67;3.55;;;8.90;94.40;;;;;;5009409;28;20036;-74
2023/11/03 07:57:11;;;;;;;18.05;3.17;;;8.90;94.30;;;;;;5014105;28;20061;-78
2023/11/03 07:59:36;;;;;;;14.43;4.10;;;8.90;94.30;;;;;;5018984;28;20025;-76
2023/11/03 08:02:03;;;;;;;15.30;2.88;;;9.00;94.40;;;;;;5016693;28;20033;-78
2023/11/03 08:04:28;;;;;;;19.38;3.92;;;9.10;94.30;;;;;;5013973;28;20386;-77
2023/11/03 08:06:55;;;;;;;15.90;4.53;;;9.20;94.10;;;;;;5016685;28;20580;-83
2023/11/03 08:09:21;;;;;;;14.20;4.13;;;9.20;93.90;;;;;;5019693;28;20029;-82
2023/11/03 08:11:47;;;;;;;11.63;2.90;;;9.20;93.70;;;;;;5018907;28;20041;-81
2023/11/03 08:14:13;;;;;;;16.27;3.90;;;9.30;93.50;;;;;;5019450;28;20036;-83
2023/11/03 08:16:45;;;;;;;17.95;3.88;;;9.30;93.50;;;;;;5014067;28;20049;-80
2023/11/03 08:19:12;;;;;;;15.20;4.22;;;9.30;93.50;;;;;;5020086;28;20075;-80
2023/11/03 08:21:41;;;;;;;12.90;3.50;;;9.40;93.30;;;;;;5015141;28;20543;-84
2023/11/03 08:24:10;;;;;;;11.30;3.58;;;9.50;93.30;;;;;;5014009;28;20036;-78
2023/11/03 08:26:36;;;;;;;14.85;3.30;;;9.50;92.90;;;;;;5014402;28;20111;-77
2023/11/03 08:29:03;;;;;;;14.73;4.03;;;9.50;92.90;;;;;;5017867;28;20087;-77
2023/11/03 08:31:29;;;;;;;15.45;3.20;;;9.60;92.80;;;;;;5017201;28;20048;-80
2023/11/03 08:33:55;;;;;;;12.30;3.40;;;9.60;92.70;;;;;;5018096;28;20045;-77
2023/11/03 08:36:22;;;;;;;18.65;4.63;;;9.70;92.50;;;;;;5012799;28;20045;-79
2023/11/03 08:38:48;;;;;;;15.98;3.47;;;9.70;92.10;;;;;;5034949;28;20031;-78
2023/11/03 08:41:13;;;;;;;11.90;3.15;;;9.80;92.10;;;;;;5029338;28;20107;-79
2023/11/03 08:43:39;;;;;;;19.48;3.53;;;9.90;91.90;;;;;;5016528;28;20065;-79
2023/11/03 08:46:05;;;;;;;13.18;2.85;;;10.00;91.60;;;;;;5018949;28;20380;-78
2023/11/03 08:48:32;;;;;;;14.68;3.25;;;10.10;91.70;;;;;;5010453;28;20494;-81
2023/11/03 08:50:58;;;;;;;15.77;3.40;;;10.20;90.70;;;;;;5011097;28;20433;-78
2023/11/03 08:53:25;;;;;;;16.65;3.35;;;10.30;90.60;;;;;;5008169;28;20026;-77
2023/11/03 08:55:51;;;;;;;12.52;3.50;;;10.40;90.50;;;;;;5008629;28;20052;-80
2023/11/03 08:58:17;;;;;;;13.05;3.70;;;10.60;90.10;;;;;;5010061;28;20046;-81
2023/11/03 09:00:45;;;;;;;13.25;3.00;;;10.70;89.80;;;;;;5031202;28;20560;-79
2023/11/03 09:03:11;;;;;;;16.20;6.07;;;10.70;89.20;;;;;;5010169;28;20739;-82
2023/11/03 09:05:37;;;;;;;14.80;5.85;;;11.10;89.70;;;;;;5014143;28;20131;-80
2023/11/03 09:08:03;;;;;;;21.33;9.48;;;11.50;88.60;;;;;;5009054;28;20045;-81
2023/11/03 09:10:29;;;;;;;21.52;11.15;;;11.60;87.40;;;;;;5012086;28;20033;-84
2023/11/03 09:12:55;;;;;;;19.73;4.72;;;11.90;87.20;;;;;;5011781;28;20030;-82
2023/11/03 09:15:21;;;;;;;15.38;4.82;;;11.90;85.70;;;;;;5008943;28;20037;-82
2023/11/03 09:17:48;;;;;;;25.23;13.60;;;12.00;85.80;;;;;;5010020;28;20064;-82
2023/11/03 09:20:18;;;;;;;14.23;3.60;;;12.10;86.10;;;;;;5011805;28;20033;-82
2023/11/03 09:22:43;;;;;;;17.08;5.03;;;12.20;86.00;;;;;;5012561;28;20117;-84
2023/11/03 09:25:09;;;;;;;15.35;3.63;;;12.20;85.60;;;;;;5015047;28;20044;-81
2023/11/03 09:27:35;;;;;;;14.95;4.53;;;12.10;85.20;;;;;;5010950;28;20054;-82
2023/11/03 09:30:04;;;;;;;14.27;4.00;;;12.10;85.70;;;;;;5018783;28;20391;-83
2023/11/03 09:32:30;;;;;;;14.57;3.33;;;12.20;85.40;;;;;;5024122;28;20507;-83
2023/11/03 09:34:56;;;;;;;13.18;3.65;;;12.60;85.40;;;;;;5017910;28;20494;-84
2023/11/03 09:37:22;;;;;;;14.10;3.20;;;12.70;84.70;;;;;;5019046;28;20490;-82
2023/11/03 09:39:49;;;;;;;13.95;3.85;;;12.60;83.90;;;;;;5023924;28;20065;-82
2023/11/03 09:42:20;;;;;;;15.32;3.88;;;12.70;83.40;;;;;;5017564;28;20129;-82
2023/11/03 09:44:46;;;;;;;15.02;3.63;;;12.50;83.50;;;;;;5020098;28;20033;-81
2023/11/03 09:47:15;;;;;;;16.42;3.03;;;12.40;83.60;;;;;;5017314;28;20029;-86
2023/11/03 09:49:43;;;;;;;11.95;3.58;;;12.20;83.40;;;;;;5038249;28;20037;-82
2023/11/03 09:52:12;;;;;;;16.80;3.58;;;12.10;84.30;;;;;;5044121;28;20033;-82
2023/11/03 09:54:39;;;;;;;13.02;2.95;;;11.90;84.70;;;;;;5040692;28;20009;-82
2023/11/03 09:57:10;;;;;;;13.82;3.47;;;11.80;85.20;;;;;;5025691;28;20344;-80
2023/11/03 09:59:38;;;;;;;18.73;4.05;;;11.80;85.40;;;;;;5020806;28;20026;-80
2023/11/03 10:02:18;;;;;;;11.02;3.13;;;11.70;85.60;;;;;;5015841;28;20124;-80
2023/11/03 10:04:44;;;;;;;14.32;3.15;;;11.70;85.70;;;;;;5019085;28;20038;-82
2023/11/03 10:07:11;;;;;;;17.05;3.95;;;11.50;85.90;;;;;;5018593;28;20087;-80
2023/11/03 10:09:39;;;;;;;14.15;3.25;;;11.40;86.10;;;;;;5001945;28;20033;-82
2023/11/03 10:12:11;;;;;;;12.57;3.45;;;11.30;86.20;;;;;;5020662;28;20501;-85
2023/11/03 10:14:39;;;;;;;13.45;3.30;;;11.40;86.50;;;;;;5015753;28;20537;-85
2023/11/03 10:17:07;;;;;;;15.25;3.42;;;11.40;86.60;;;;;;5022002;28;20094;-81
2023/11/03 10:19:33;;;;;;;13.23;3.65;;;11.40;86.50;;;;;;5016723;28;20100;-80
2023/11/03 10:22:06;;;;;;;10.68;2.97;;;11.40;86.40;;;;;;5020736;28;20423;-81
2023/11/03 10:24:32;;;;;;;14.35;3.22;;;11.40;86.10;;;;;;5018594;28;20258;-82
2023/11/03 10:26:59;;;;;;;11.85;3.20;;;11.30;86.30;;;;;;5018979;28;20046;-82
2023/11/03 10:29:26;;;;;;;11.77;3.30;;;11.60;86.20;;;;;;5022661;28;20582;-84
2023/11/03 10:31:51;;;;;;;13.18;3.30;;;11.70;85.20;;;;;;5020811;28;20091;-84
2023/11/03 10:34:19;;;;;;;10.10;2.88;;;11.90;84.80;;;;;;5034279;28;20018;-82
2023/11/03 10:36:50;;;;;;;11.65;3.28;;;11.90;84.40;;;;;;5017441;28;20046;-84
2023/11/03 10:39:17;;;;;;;12.35;3.08;;;12.00;84.00;;;;;;5025083;28;20091;-84
2023/11/03 10:41:43;;;;;;;10.02;2.90;;;12.00;83.50;;;;;;5017690;28;20045;-82
2023/11/03 10:44:14;;;;;;;11.77;3.25;;;12.10;83.50;;;;;;5020602;28;20033;-85
2023/11/03 10:46:55;;;;;;;13.23;2.95;;;12.10;83.10;;;;;;5015972;28;20052;-81
2023/11/03 10:49:31;;;;;;;13.88;2.92;;;12.10;82.80;;;;;;5022547;28;20014;-87
2023/11/03 10:52:03;;;;;;;8.48;2.47;;;12.10;82.70;;;;;;5016642;28;20038;-84
2023/11/03 10:54:39;;;;;;;9.85;2.80;;;12.00;82.90;;;;;;5015490;28;20422;-81
2023/11/03 10:57:05;;;;;;;13.75;2.88;;;12.10;83.00;;;;;;5017658;28;20072;-82
2023/11/03 10:59:33;;;;;;;15.13;2.45;;;12.20;82.80;;;;;;5013968;28;20014;-81
2023/11/03 11:02:18;;;;;;;12.65;3.15;;;12.30;82.40;;;;;;5018170;28;20033;-82
2023/11/03 11:04:53;;;;;;;13.10;3.22;;;12.50;82.10;;;;;;5014442;28;20036;-80
2023/11/03 11:07:21;;;;;;;8.63;2.45;;;12.40;82.20;;;;;;5011864;28;20033;-80
2023/11/03 11:09:48;;;;;;;12.45;2.65;;;12.30;81.90;;;;;;5015733;28;20022;-84
2023/11/03 11:12:14;;;;;;;11.98;2.47;;;12.30;82.30;;;;;;5014212;28;20061;-83
2023/11/03 11:14:42;;;;;;;12.82;2.90;;;12.30;83.70;;;;;;5017173;28;20106;-82
2023/11/03 11:17:23;;;;;;;13.85;2.78;;;12.30;84.10;;;;;;5036870;28;20099;-81
2023/11/03 11:19:53;;;;;;;12.27;2.30;;;12.40;85.00;;;;;;5013914;28;20501;-82
2023/11/03 11:22:19;;;;;;;9.70;2.08;;;12.40;82.20;;;;;;5017300;28;20187;-82
2023/11/03 11:24:47;;;;;;;9.27;2.30;;;12.40;81.50;;;;;;5013074;28;20045;-80
2023/11/03 11:27:24;;;;;;;12.05;2.38;;;12.50;81.20;;;;;;5017999;28;20542;-85
2023/11/03 11:30:04;;;;;;;7.63;2.40;;;12.60;81.30;;;;;;5015748;28;20478;-82
2023/11/03 11:32:30;;;;;;;7.55;2.40;;;12.60;81.20;;;;;;5006375;28;20072;-83
2023/11/03 11:34:57;;;;;;;11.23;2.65;;;12.70;81.30;;;;;;5012566;28;20038;-80
2023/11/03 11:37:28;;;;;;;10.23;2.55;;;12.90;81.90;;;;;;5015279;28;20077;-82
2023/11/03 11:40:05;;;;;;;12.63;3.33;;;13.10;80.70;;;;;;5015759;28;20067;-82
2023/11/03 11:42:35;;;;;;;10.73;2.55;;;13.20;80.40;;;;;;5011388;28;20366;-82
2023/11/03 11:45:02;;;;;;;11.50;3.28;;;13.40;78.60;;;;;;5018347;28;20034;-82
2023/11/03 11:47:30;;;;;;;12.13;2.53;;;13.40;78.20;;;;;;5011112;28;20901;-82
2023/11/03 11:49:57;;;;;;;9.98;2.25;;;13.40;77.60;;;;;;5016349;28;20140;-80
2023/11/03 11:52:26;;;;;;;10.98;2.95;;;13.30;77.40;;;;;;5013049;28;20021;-81
2023/11/03 11:54:57;;;;;;;10.63;2.72;;;13.30;78.00;;;;;;5014342;28;20032;-83
2023/11/03 11:57:26;;;;;;;10.68;2.72;;;13.20;77.60;;;;;;5016988;28;20435;-81
2023/11/03 11:59:53;;;;;;;12.43;3.10;;;13.10;78.40;;;;;;5019670;28;20025;-82
2023/11/03 12:02:24;;;;;;;14.82;3.13;;;13.10;79.50;;;;;;5017301;28;20731;-80
2023/11/03 12:04:50;;;;;;;11.88;2.70;;;13.10;80.80;;;;;;5020479;28;20106;-81
2023/11/03 12:07:24;;;;;;;9.15;2.55;;;13.00;81.40;;;;;;5015078;28;20509;-83
2023/11/03 12:09:54;;;;;;;8.80;2.42;;;12.80;81.60;;;;;;5010521;28;20542;-83
2023/11/03 12:12:27;;;;;;;11.15;2.83;;;12.70;81.50;;;;;;5011065;28;20033;-83
2023/11/03 12:14:55;;;;;;;10.70;2.95;;;12.90;82.10;;;;;;5012988;28;20041;-83
2023/11/03 12:17:21;;;;;;;11.90;3.13;;;13.00;82.20;;;;;;5017365;28;20053;-82
2023/11/03 12:19:51;;;;;;;13.63;3.13;;;13.10;82.40;;;;;;5014969;28;20430;-83
2023/11/03 12:22:21;;;;;;;8.82;2.83;;;13.10;82.00;;;;;;5014227;28;20037;-81
2023/11/03 12:24:53;;;;;;;9.63;2.30;;;13.10;81.50;;;;;;5016719;28;20044;-82
2023/11/03 12:27:19;;;;;;;11.82;2.72;;;13.30;81.30;;;;;;5016819;28;20137;-82
2023/11/03 12:29:46;;;;;;;12.75;2.95;;;13.40;81.00;;;;;;5014236;28;20489;-84
2023/11/03 12:32:12;;;;;;;10.50;2.50;;;13.40;79.90;;;;;;5021561;28;20033;-82
2023/11/03 12:34:41;;;;;;;11.70;2.67;;;13.40;79.70;;;;;;5017462;28;20041;-82
2023/11/03 12:37:07;;;;;;;7.97;2.25;;;13.30;80.10;;;;;;5013334;28;20091;-82
2023/11/03 12:39:52;;;;;;;9.45;2.40;;;13.30;78.90;;;;;;5015804;28;20018;-79
2023/11/03 12:42:22;;;;;;;6.68;1.92;;;13.50;78.50;;;;;;5011285;28;20034;-81
2023/11/03 12:44:55;;;;;;;8.75;2.00;;;13.60;76.90;;;;;;5015359;28;20112;-81